Time;durP1;ratioP1;P1;durP2;ratioP2;P2;SDS_P1;SDS_P2;PMS_P1;PMS_P2;Temp;Humidity;BMP_temperature;BMP_pressure;BME280_temperature;BME280_humidity;BME280_pressure;Samples;Min_cycle;Max_cycle;Signal;HPM_P1;HPM_P2
2022/09/10 00:02:18;;;;;;;5.17;2.80;;;;;;;-143.84;85.77;45094.78;5074038;28;20498;-73
2022/09/10 00:04:45;;;;;;;7.17;2.57;;;;;;;-143.84;86.07;45066.22;5073930;28;20440;-73
2022/09/10 00:07:12;;;;;;;4.83;2.30;;;;;;;-143.84;86.32;45062.41;5073853;28;20441;-73
2022/09/10 00:09:39;;;;;;;4.83;2.50;;;;;;;-143.84;86.99;45090.97;5073563;28;20459;-73
2022/09/10 00:12:07;;;;;;;7.70;3.17;;;;;;;-143.84;87.28;45090.97;5073543;28;21062;-73
2022/09/10 00:14:35;;;;;;;8.73;2.53;;;;;;;-143.84;87.08;45087.16;5073235;28;20437;-73
2022/09/10 00:17:04;;;;;;;10.07;3.03;;;;;;;-143.84;87.68;45066.22;5073257;28;20436;-73
2022/09/10 00:19:31;;;;;;;6.70;2.77;;;;;;;-143.84;87.73;45068.13;5073235;28;20440;-73
2022/09/10 00:21:58;;;;;;;10.27;3.43;;;;;;;-143.84;87.49;45083.34;5073039;28;20451;-73
2022/09/10 00:24:25;;;;;;;7.47;3.40;;;;;;;-143.84;87.40;45087.16;5072622;28;20440;-73
2022/09/10 00:26:53;;;;;;;7.00;3.00;;;;;;;-143.84;87.77;45058.59;5072594;28;20436;-73
2022/09/10 00:29:20;;;;;;;11.30;2.70;;;;;;;-143.84;87.75;45092.88;5072917;28;20950;-73
2022/09/10 00:31:49;;;;;;;8.00;3.10;;;;;;;-143.84;88.13;45102.38;5073218;28;20533;-73
2022/09/10 00:34:16;;;;;;;6.40;2.80;;;;;;;-143.84;87.96;45083.34;5072760;28;20436;-73
2022/09/10 00:36:43;;;;;;;5.20;2.37;;;;;;;-143.84;87.69;45098.56;5073169;28;20428;-73
2022/09/10 00:39:12;;;;;;;5.17;2.93;;;;;;;-143.84;88.19;45071.91;5072874;28;20575;-73
2022/09/10 00:41:42;;;;;;;3.63;2.77;;;;;;;-143.84;88.33;45075.72;5073101;28;20437;-73
2022/09/10 00:44:43;;;;;;;7.87;3.17;;;;;;;-143.84;87.66;45070.00;5072603;28;20441;-73
2022/09/10 00:47:17;;;;;;;10.00;2.60;;;;;;;-143.84;88.25;45064.31;5072445;28;20843;-73
2022/09/10 00:49:48;;;;;;;4.37;2.67;;;;;;;-143.84;88.35;45079.53;5072294;28;20429;-73
2022/09/10 00:52:16;;;;;;;7.43;2.70;;;;;;;-143.84;88.30;45079.53;5072172;28;20484;-73
2022/09/10 00:54:45;;;;;;;8.10;3.40;;;;;;;-143.84;88.04;45090.97;5072554;28;20425;-73
2022/09/10 00:57:17;;;;;;;16.20;3.23;;;;;;;-143.84;87.93;45056.69;5072854;28;20501;-73
2022/09/10 00:59:48;;;;;;;6.83;3.17;;;;;;;-143.84;87.82;45089.06;5072149;28;20437;-73
2022/09/10 01:02:17;;;;;;;6.63;2.90;;;;;;;-143.84;88.42;45079.53;5071740;28;20829;-73
2022/09/10 01:04:45;;;;;;;8.53;3.27;;;;;;;-143.84;88.65;45056.69;5071456;28;20451;-73
2022/09/10 01:07:14;;;;;;;7.50;3.37;;;;;;;-143.84;89.00;45081.44;5070917;28;20829;-73
2022/09/10 01:09:42;;;;;;;8.27;3.07;;;;;;;-143.84;88.90;45064.31;5071441;28;20519;-73
2022/09/10 01:12:24;;;;;;;7.83;2.90;;;;;;;-143.84;89.17;45068.13;5070938;28;20464;-73
2022/09/10 01:15:09;;;;;;;11.70;3.20;;;;;;;-143.84;88.68;45070.00;5071252;28;20445;-73
2022/09/10 01:17:53;;;;;;;8.83;3.50;;;;;;;-143.84;88.58;45071.91;5071477;28;20523;-73
2022/09/10 01:20:46;;;;;;;8.30;2.80;;;;;;;-143.84;88.13;45079.53;5071589;28;21316;-73
2022/09/10 01:23:51;;;;;;;6.93;2.90;;;;;;;-143.84;88.33;45075.72;5059075;28;20444;-73
2022/09/10 01:26:33;;;;;;;5.43;2.50;;;;;;;-143.84;88.36;45089.06;5068150;28;20563;-73
2022/09/10 01:29:07;;;;;;;8.03;2.93;;;;;;;-143.84;88.02;45081.44;5071975;28;20914;-73
2022/09/10 01:31:42;;;;;;;5.17;2.73;;;;;;;-143.84;88.09;45073.81;5071725;28;20475;-73
2022/09/10 01:34:16;;;;;;;12.50;2.50;;;;;;;-143.84;88.30;45079.53;5071675;28;20448;-73
2022/09/10 01:36:49;;;;;;;14.73;2.57;;;;;;;-143.84;88.45;45056.69;5071651;28;21005;-73
2022/09/10 01:39:18;;;;;;;8.30;3.10;;;;;;;-143.84;89.11;45083.34;5071396;28;20550;-73
2022/09/10 01:41:47;;;;;;;7.07;3.37;;;;;;;-143.84;89.38;45077.63;5071382;28;20502;-73
2022/09/10 01:44:43;;;;;;;10.47;3.30;;;;;;;-143.84;89.70;45094.78;5071289;28;20515;-73
2022/09/10 01:47:17;;;;;;;5.63;2.37;;;;;;;-143.84;89.41;45096.66;5071287;28;20490;-73
2022/09/10 01:49:57;;;;;;;5.10;2.23;;;;;;;-143.84;89.60;45070.00;5071216;28;20469;-73
2022/09/10 01:52:32;;;;;;;17.93;3.13;;;;;;;-143.84;89.67;45104.28;5071070;28;20476;-73
2022/09/10 01:55:11;;;;;;;11.30;2.83;;;;;;;-143.84;89.51;45087.16;5070926;28;20424;-73
2022/09/10 01:57:47;;;;;;;6.60;3.17;;;;;;;-143.84;89.06;45081.44;5071521;28;20542;-73
2022/09/10 02:00:18;;;;;;;13.87;2.53;;;;;;;-143.84;88.14;45087.16;5070454;28;20437;-73
2022/09/10 02:02:52;;;;;;;8.97;2.90;;;;;;;-143.84;88.34;45066.22;5071005;28;20478;-73
2022/09/10 02:05:22;;;;;;;17.50;3.27;;;;;;;-143.84;89.13;45073.81;5070996;28;20436;-73
2022/09/10 02:07:55;;;;;;;6.20;2.50;;;;;;;-143.84;88.83;45070.00;5070875;28;20911;-73
2022/09/10 02:10:23;;;;;;;11.33;2.60;;;;;;;-143.84;88.58;45071.91;5070157;28;20889;-73
2022/09/10 02:12:50;;;;;;;11.97;2.70;;;;;;;-143.84;88.76;45068.13;5069447;28;20480;-73
2022/09/10 02:15:21;;;;;;;15.57;2.97;;;;;;;-143.84;88.62;45089.06;5070857;28;20486;-73
2022/09/10 02:17:51;;;;;;;7.07;3.07;;;;;;;-143.84;88.36;45077.63;5070762;28;21005;-73
2022/09/10 02:20:18;;;;;;;14.07;3.00;;;;;;;-143.84;88.64;45098.56;5070715;28;20444;-73
2022/09/10 02:22:51;;;;;;;8.87;3.23;;;;;;;-143.84;88.62;45062.41;5070841;28;20437;-73
2022/09/10 02:25:20;;;;;;;6.77;2.33;;;;;;;-143.84;88.02;45081.44;5070776;28;20449;-73
2022/09/10 02:27:47;;;;;;;9.03;2.93;;;;;;;-143.84;87.70;45077.63;5070513;28;20433;-73
2022/09/10 02:30:15;;;;;;;7.43;2.67;;;;;;;-143.84;87.29;45085.25;5070561;28;20536;-73
2022/09/10 02:32:44;;;;;;;10.83;2.50;;;;;;;-143.84;87.39;45087.16;5070339;28;20576;-73
2022/09/10 02:35:11;;;;;;;6.17;2.27;;;;;;;-143.84;87.32;45071.91;5070603;28;21199;-73
2022/09/10 02:37:38;;;;;;;4.40;2.70;;;;;;;-143.84;87.19;45068.13;5070491;28;20475;-73
2022/09/10 02:40:07;;;;;;;9.60;2.70;;;;;;;-143.84;87.55;45100.47;5070454;28;20472;-73
2022/09/10 02:42:34;;;;;;;5.53;2.83;;;;;;;-143.84;87.36;45070.00;5069153;28;20874;-73
2022/09/10 02:45:01;;;;;;;6.07;2.77;;;;;;;-143.84;87.82;45087.16;5070334;28;20498;-73
2022/09/10 02:47:28;;;;;;;11.20;3.50;;;;;;;-143.84;87.71;45050.97;5070311;28;20440;-73
2022/09/10 02:49:57;;;;;;;10.70;2.53;;;;;;;-143.84;88.34;45071.91;5070346;28;20475;-73
2022/09/10 02:52:24;;;;;;;8.33;2.90;;;;;;;-143.84;88.15;45064.31;5069583;28;20468;-68
2022/09/10 02:54:51;;;;;;;10.20;3.00;;;;;;;-143.84;87.29;45090.97;5068726;28;20976;-68
2022/09/10 02:57:18;;;;;;;10.33;2.80;;;;;;;-143.84;86.91;45092.88;5068295;28;20588;-68
2022/09/10 02:59:46;;;;;;;11.43;2.60;;;;;;;-143.84;86.92;45083.34;5068879;28;21154;-68
2022/09/10 03:02:13;;;;;;;4.57;2.90;;;;;;;-143.84;86.71;45049.06;5069266;28;20437;-68
2022/09/10 03:04:40;;;;;;;3.30;2.30;;;;;;;-143.84;86.93;45079.53;5068760;28;20957;-69
2022/09/10 03:07:09;;;;;;;7.93;3.00;;;;;;;-143.84;87.59;45090.97;5068619;28;20440;-68
2022/09/10 03:09:39;;;;;;;13.13;2.63;;;;;;;-143.84;87.53;45079.53;5068523;28;20518;-68
2022/09/10 03:12:08;;;;;;;9.43;3.60;;;;;;;-143.84;88.29;45083.34;5068628;28;20560;-68
2022/09/10 03:14:35;;;;;;;14.80;2.80;;;;;;;-143.84;88.83;45056.69;5068946;28;20761;-68
2022/09/10 03:17:03;;;;;;;8.93;2.80;;;;;;;-143.84;88.81;45085.25;5068797;28;20498;-68
2022/09/10 03:19:30;;;;;;;9.47;2.83;;;;;;;-143.84;88.84;45087.16;5068970;28;20429;-69
2022/09/10 03:21:57;;;;;;;11.43;2.90;;;;;;;-143.84;88.96;45060.50;5068745;28;20532;-68
2022/09/10 03:24:27;;;;;;;6.60;3.00;;;;;;;-143.84;89.38;45079.53;5068409;28;20992;-68
2022/09/10 03:26:54;;;;;;;4.70;2.90;;;;;;;-143.84;90.04;45081.44;5068802;28;20506;-69
2022/09/10 03:29:22;;;;;;;8.90;2.90;;;;;;;-143.84;90.27;45049.06;5069002;28;20486;-70
2022/09/10 03:31:50;;;;;;;8.70;2.77;;;;;;;-143.84;90.20;45087.16;5053840;28;20477;-74
2022/09/10 03:34:17;;;;;;;12.83;3.60;;;;;;;-143.84;90.33;45100.47;5049428;28;20533;-73
2022/09/10 03:36:46;;;;;;;8.77;3.10;;;;;;;-143.84;90.10;45066.22;5049405;28;20502;-75
2022/09/10 03:39:13;;;;;;;5.30;2.73;;;;;;;-143.84;90.21;45087.16;5048919;28;20550;-73
2022/09/10 03:41:43;;;;;;;10.83;3.67;;;;;;;-143.84;90.32;45102.38;5049061;28;20448;-69
2022/09/10 03:44:10;;;;;;;14.13;3.30;;;;;;;-143.84;89.81;45068.13;5066571;28;20455;-69
2022/09/10 03:46:38;;;;;;;10.77;2.70;;;;;;;-143.84;89.50;45062.41;5069091;28;20429;-69
2022/09/10 03:49:09;;;;;;;10.60;2.93;;;;;;;-143.84;89.27;45100.47;5069128;28;20894;-68
2022/09/10 03:51:41;;;;;;;7.23;2.60;;;;;;;-143.84;89.29;45071.91;5068360;28;21274;-69
2022/09/10 03:54:08;;;;;;;4.77;2.53;;;;;;;-143.84;88.76;45085.25;5067826;28;20981;-69
2022/09/10 03:56:35;;;;;;;7.73;2.83;;;;;;;-143.84;88.64;45083.34;5068288;28;20970;-69
2022/09/10 03:59:04;;;;;;;4.37;2.63;;;;;;;-143.84;88.83;45090.97;5068690;28;20437;-69
2022/09/10 04:01:31;;;;;;;9.77;2.80;;;;;;;-143.84;88.38;45090.97;5068666;28;20440;-69
2022/09/10 04:03:58;;;;;;;8.43;3.30;;;;;;;-143.84;88.97;45081.44;5067378;28;20443;-69
2022/09/10 04:06:26;;;;;;;5.03;2.27;;;;;;;-143.84;89.13;45083.34;5067427;28;20502;-69
2022/09/10 04:08:54;;;;;;;4.83;2.53;;;;;;;-143.84;89.33;45083.34;5067670;28;20512;-69
2022/09/10 04:11:26;;;;;;;5.23;2.60;;;;;;;-143.84;89.18;45081.44;5067671;28;20479;-69
2022/09/10 04:13:53;;;;;;;13.47;3.13;;;;;;;-143.84;88.97;45092.88;5067782;28;20444;-69
2022/09/10 04:16:22;;;;;;;9.00;2.80;;;;;;;-143.84;88.99;45085.25;5067447;28;20513;-69
2022/09/10 04:18:50;;;;;;;5.23;2.60;;;;;;;-143.84;88.80;45090.97;5068334;28;20827;-69
2022/09/10 04:21:17;;;;;;;12.70;2.57;;;;;;;-143.84;88.25;45068.13;5068784;28;20440;-69
2022/09/10 04:23:44;;;;;;;6.77;2.80;;;;;;;-143.84;87.54;45062.41;5068851;28;20483;-69
2022/09/10 04:26:13;;;;;;;6.07;2.60;;;;;;;-143.84;87.62;45052.88;5068490;28;20451;-69
2022/09/10 04:28:41;;;;;;;4.90;2.30;;;;;;;-143.84;87.30;45081.44;5068454;28;20471;-69
2022/09/10 04:31:08;;;;;;;7.97;2.63;;;;;;;-143.84;87.02;45068.13;5068273;28;20429;-69
2022/09/10 04:33:37;;;;;;;12.67;3.50;;;;;;;-143.84;86.80;45050.97;5068313;28;20541;-69
2022/09/10 04:36:05;;;;;;;4.93;2.43;;;;;;;-143.84;86.97;45092.88;5069596;28;20433;-69
2022/09/10 04:38:33;;;;;;;4.37;2.80;;;;;;;-143.84;86.75;45085.25;5072000;28;20488;-69
2022/09/10 04:41:00;;;;;;;9.53;2.70;;;;;;;-143.84;87.21;45066.22;5072187;28;20624;-69
2022/09/10 04:43:28;;;;;;;10.00;2.97;;;;;;;-143.84;87.05;45079.53;5071817;28;21113;-68
2022/09/10 04:45:56;;;;;;;5.77;2.27;;;;;;;-143.84;87.11;45071.91;5071576;28;20440;-68
2022/09/10 04:48:23;;;;;;;7.97;3.00;;;;;;;-143.84;86.80;45110.00;5071624;28;20853;-68
2022/09/10 04:50:52;;;;;;;10.03;2.70;;;;;;;-143.84;86.03;45062.41;5071057;28;20502;-68
2022/09/10 04:53:20;;;;;;;6.33;2.30;;;;;;;-143.84;85.91;45089.06;5071558;28;20479;-69
2022/09/10 04:55:50;;;;;;;8.13;2.60;;;;;;;-143.84;86.05;45102.38;5071637;28;20437;-69
2022/09/10 04:58:17;;;;;;;15.50;2.87;;;;;;;-143.84;86.35;45083.34;5071564;28;20475;-68
2022/09/10 05:00:45;;;;;;;9.37;3.17;;;;;;;-143.84;86.29;45066.22;5071640;28;21078;-68
2022/09/10 05:03:13;;;;;;;10.50;2.73;;;;;;;-143.84;85.91;45066.22;5071266;28;20494;-69
2022/09/10 05:05:41;;;;;;;6.33;2.67;;;;;;;-143.84;85.94;45089.06;5071652;28;20460;-68
2022/09/10 05:08:11;;;;;;;11.60;2.57;;;;;;;-143.84;85.67;45079.53;5071623;28;20495;-69
2022/09/10 05:10:39;;;;;;;7.17;2.53;;;;;;;-143.84;85.87;45083.34;5071265;28;20449;-68
2022/09/10 05:13:06;;;;;;;7.47;2.80;;;;;;;-143.84;86.04;45068.13;5071300;28;20480;-69
2022/09/10 05:15:34;;;;;;;8.63;2.87;;;;;;;-143.84;85.94;45075.72;5071236;28;20816;-68
2022/09/10 05:18:02;;;;;;;6.33;2.53;;;;;;;-143.84;85.74;45066.22;5071090;28;20452;-69
2022/09/10 05:20:29;;;;;;;8.80;2.40;;;;;;;-143.84;85.73;45056.69;5071261;28;20448;-69
2022/09/10 05:22:56;;;;;;;9.27;2.77;;;;;;;-143.84;85.77;45100.47;5071307;28;20452;-69
2022/09/10 05:25:26;;;;;;;6.70;2.60;;;;;;;-143.84;86.03;45049.06;5070881;28;20962;-69
2022/09/10 05:27:55;;;;;;;8.67;3.20;;;;;;;-143.84;85.66;45073.81;5070563;28;20449;-69
2022/09/10 05:30:22;;;;;;;5.30;2.53;;;;;;;-143.84;84.99;45098.56;5070583;28;20942;-69
2022/09/10 05:32:52;;;;;;;9.87;2.87;;;;;;;-143.84;84.97;45079.53;5070387;28;20480;-69
2022/09/10 05:35:19;;;;;;;9.60;3.10;;;;;;;-143.84;84.25;45058.59;5070851;28;20444;-69
2022/09/10 05:37:46;;;;;;;12.80;3.07;;;;;;;-143.84;84.02;45085.25;5071028;28;20449;-69
2022/09/10 05:40:15;;;;;;;13.50;2.30;;;;;;;-143.84;83.27;45075.72;5070886;28;20485;-69
2022/09/10 05:42:43;;;;;;;4.40;2.47;;;;;;;-143.84;82.08;45049.06;5070794;28;20449;-69
2022/09/10 05:45:11;;;;;;;5.73;2.60;;;;;;;-143.84;81.99;45047.16;5070985;28;20444;-69
2022/09/10 05:47:38;;;;;;;6.43;2.30;;;;;;;-143.84;81.39;45060.50;5070568;28;21059;-69
2022/09/10 05:50:06;;;;;;;7.20;2.90;;;;;;;-143.84;79.96;45033.84;5070587;28;20441;-70
2022/09/10 05:52:33;;;;;;;8.93;2.50;;;;;;;-143.84;78.41;45039.53;5070396;28;20483;-69
2022/09/10 05:55:00;;;;;;;6.20;2.30;;;;;;;-143.84;77.07;45033.84;5070432;28;20567;-69
2022/09/10 05:57:28;;;;;;;6.43;2.40;;;;;;;-143.84;77.40;45050.97;5070668;28;20440;-69
2022/09/10 05:59:56;;;;;;;5.63;2.80;;;;;;;-143.84;77.63;45062.41;5070404;28;20436;-69
2022/09/10 06:02:23;;;;;;;5.13;2.33;;;;;;;-143.84;76.89;45037.66;5070833;28;20433;-70
2022/09/10 06:04:50;;;;;;;8.53;2.67;;;;;;;-143.84;76.86;45047.16;5070598;28;21340;-69
2022/09/10 06:07:18;;;;;;;5.73;1.80;;;;;;;-143.84;77.15;45049.06;5070490;28;20433;-69
2022/09/10 06:09:45;;;;;;;7.03;2.30;;;;;;;-143.84;77.64;45028.13;5070594;28;20441;-70
2022/09/10 06:12:12;;;;;;;9.90;2.40;;;;;;;-143.84;77.12;45070.00;5070718;28;20546;-70
2022/09/10 06:14:39;;;;;;;22.37;3.07;;;;;;;-143.84;77.20;45039.53;5069846;28;20451;-69
2022/09/10 06:17:08;;;;;;;7.50;2.77;;;;;;;-143.84;76.75;45050.97;5069899;28;20437;-70
2022/09/10 06:19:35;;;;;;;8.10;2.60;;;;;;;-143.84;76.01;45043.34;5069606;28;20452;-70
2022/09/10 06:22:03;;;;;;;10.67;2.43;;;;;;;-143.84;74.32;45037.66;5070294;28;20942;-70
2022/09/10 06:24:30;;;;;;;6.83;2.40;;;;;;;-143.84;72.93;45031.94;5070340;28;20445;-70
2022/09/10 06:26:58;;;;;;;8.77;2.33;;;;;;;-143.84;71.15;45026.22;5070211;28;20451;-69
2022/09/10 06:29:25;;;;;;;4.67;2.30;;;;;;;-143.84;71.18;45018.59;5070408;28;20793;-70
2022/09/10 06:31:52;;;;;;;6.57;2.30;;;;;;;-143.84;70.36;45024.31;5070325;28;20440;-69
2022/09/10 06:34:21;;;;;;;4.87;1.93;;;;;;;-143.84;70.67;45043.34;5070317;28;20476;-69
2022/09/10 06:36:49;;;;;;;7.53;2.53;;;;;;;-143.84;70.49;45016.69;5070055;28;20448;-69
2022/09/10 06:39:16;;;;;;;5.40;2.13;;;;;;;-143.84;71.03;45018.59;5069549;28;21322;-69
2022/09/10 06:41:44;;;;;;;6.37;2.50;;;;;;;-143.84;70.20;45047.16;5068049;28;20442;-69
2022/09/10 06:44:11;;;;;;;6.07;2.13;;;;;;;-143.84;70.25;45030.03;5069047;28;20461;-69
2022/09/10 06:46:38;;;;;;;10.73;2.90;;;;;;;-143.84;69.56;45054.78;5069128;28;20455;-69
2022/09/10 06:49:06;;;;;;;11.47;2.83;;;;;;;-143.84;68.07;45045.25;5069127;28;20445;-69
2022/09/10 06:51:34;;;;;;;6.07;2.33;;;;;;;-143.84;68.43;44995.75;5069094;28;20453;-69
2022/09/10 06:54:02;;;;;;;3.23;2.27;;;;;;;-143.84;68.77;45012.88;5069334;28;20559;-69
2022/09/10 06:56:29;;;;;;;9.63;2.90;;;;;;;-143.84;68.54;45026.22;5068605;28;20480;-69
2022/09/10 06:58:57;;;;;;;10.40;2.13;;;;;;;-143.84;69.37;45016.69;5068599;28;20484;-69
2022/09/10 07:01:24;;;;;;;6.57;2.60;;;;;;;-143.84;68.15;45026.22;5067550;28;20444;-69
2022/09/10 07:03:56;;;;;;;8.23;2.57;;;;;;;-143.84;69.27;45031.94;5068357;28;20448;-69
2022/09/10 07:06:25;;;;;;;4.73;2.43;;;;;;;-143.84;68.75;45035.75;5068717;28;20456;-69
2022/09/10 07:08:56;;;;;;;7.80;2.63;;;;;;;-143.84;69.23;45020.50;5068959;28;20445;-69
2022/09/10 07:11:24;;;;;;;9.60;2.40;;;;;;;-143.84;68.22;45009.09;5068571;28;20480;-69
2022/09/10 07:13:53;;;;;;;8.50;2.80;;;;;;;-143.84;68.27;45016.69;5068504;28;20492;-69
2022/09/10 07:16:21;;;;;;;7.13;2.60;;;;;;;-143.84;67.91;45026.22;5068479;28;20456;-69
2022/09/10 07:18:49;;;;;;;6.27;2.37;;;;;;;-143.84;68.81;45049.06;5068622;28;20441;-69
2022/09/10 07:21:18;;;;;;;4.53;2.00;;;;;;;-143.84;67.35;45041.44;5065200;28;20473;-69
2022/09/10 07:23:47;;;;;;;6.17;2.97;;;;;;;-143.84;67.84;45050.97;5068386;28;20959;-71
2022/09/10 07:26:18;;;;;;;5.00;2.53;;;;;;;-143.84;68.57;45010.97;5069331;28;20490;-72
2022/09/10 07:28:46;;;;;;;5.63;2.23;;;;;;;-143.84;68.06;45014.78;5069745;28;20456;-72
2022/09/10 07:31:16;;;;;;;6.30;2.50;;;;;;;-143.84;67.75;45035.75;5068245;28;20453;-69
2022/09/10 07:33:43;;;;;;;6.43;2.13;;;;;;;-143.84;67.21;45079.53;5067873;28;20846;-69
2022/09/10 07:36:12;;;;;;;7.53;2.33;;;;;;;-143.84;69.00;45035.75;5068084;28;20441;-69
2022/09/10 07:38:41;;;;;;;6.47;2.70;;;;;;;-143.84;69.06;45039.53;5066861;28;20484;-69
2022/09/10 07:41:10;;;;;;;3.70;2.20;;;;;;;-143.84;68.41;45035.75;5066210;28;20453;-69
2022/09/10 07:43:39;;;;;;;6.80;2.57;;;;;;;-143.84;67.83;45010.97;5067431;28;20882;-69
2022/09/10 07:46:06;;;;;;;5.97;2.57;;;;;;;-143.84;67.40;45016.69;5068139;28;20510;-70
2022/09/10 07:48:33;;;;;;;7.03;3.20;;;;;;;-143.84;67.24;45020.50;5067432;28;20888;-69
2022/09/10 07:51:05;;;;;;;9.73;2.80;;;;;;;-143.84;68.58;45020.50;5067667;28;20463;-69
2022/09/10 07:53:32;;;;;;;7.70;3.03;;;;;;;-143.84;68.24;45031.94;5067681;28;20546;-69
2022/09/10 07:56:02;;;;;;;5.13;2.30;;;;;;;-143.84;67.81;45018.59;5068199;28;20802;-70
2022/09/10 07:58:30;;;;;;;6.80;2.20;;;;;;;-143.84;68.01;45020.50;5067721;28;20536;-72
2022/09/10 08:00:59;;;;;;;12.03;2.70;;;;;;;-143.84;68.78;45010.97;5066822;28;20475;-72
2022/09/10 08:03:27;;;;;;;11.53;2.40;;;;;;;-143.84;68.44;45052.88;5068052;28;20465;-71
2022/09/10 08:05:55;;;;;;;8.53;2.83;;;;;;;-143.84;69.00;45026.22;5068662;28;21767;-72
2022/09/10 08:08:23;;;;;;;4.70;2.57;;;;;;;-143.84;69.41;45031.94;5067044;28;20453;-72
2022/09/10 08:10:50;;;;;;;8.27;2.10;;;;;;;-143.84;68.09;45022.41;5068198;28;20448;-72
2022/09/10 08:13:18;;;;;;;4.40;2.57;;;;;;;-143.84;66.33;45028.13;5071433;28;20546;-72
2022/09/10 08:15:46;;;;;;;3.63;2.23;;;;;;;-143.84;66.29;45047.16;5071517;28;20456;-72
2022/09/10 08:18:14;;;;;;;5.17;2.17;;;;;;;-143.84;66.26;44982.41;5071684;28;20525;-73
2022/09/10 08:20:41;;;;;;;7.60;2.50;;;;;;;-143.84;65.88;45012.88;5070517;28;20488;-71
2022/09/10 08:23:09;;;;;;;10.27;2.37;;;;;;;-143.84;66.01;45041.44;5068233;28;20445;-72
2022/09/10 08:25:36;;;;;;;8.03;3.60;;;;;;;-143.84;66.58;45043.34;5070811;28;20441;-72
2022/09/10 08:28:04;;;;;;;5.43;2.57;;;;;;;-143.84;65.91;44995.75;5071080;28;20973;-71
2022/09/10 08:30:31;;;;;;;5.27;2.77;;;;;;;-143.84;65.48;45007.19;5072214;28;20961;-71
2022/09/10 08:32:58;;;;;;;5.40;2.17;;;;;;;-143.84;64.91;45007.19;5072338;28;20432;-72
2022/09/10 08:35:27;;;;;;;6.20;2.13;;;;;;;-143.84;64.85;45010.97;5072286;28;20444;-72
2022/09/10 08:37:54;;;;;;;8.63;2.90;;;;;;;-143.84;65.08;45014.78;5071271;28;20969;-69
2022/09/10 08:40:22;;;;;;;4.43;2.57;;;;;;;-143.84;64.52;45030.03;5070451;28;20506;-68
2022/09/10 08:42:51;;;;;;;4.80;2.20;;;;;;;-143.84;64.76;44991.94;5069677;28;20461;-71
2022/09/10 08:45:22;;;;;;;5.40;2.40;;;;;;;-143.84;64.57;44995.75;5070174;28;20518;-68
2022/09/10 08:47:55;;;;;;;7.07;2.40;;;;;;;-143.84;65.30;45005.28;5070903;28;20510;-68
2022/09/10 08:50:36;;;;;;;4.07;2.10;;;;;;;-143.84;65.47;45024.31;5070751;28;20449;-68
2022/09/10 08:53:17;;;;;;;4.90;2.10;;;;;;;-143.84;64.06;45024.31;5070643;28;20539;-69
2022/09/10 08:55:46;;;;;;;8.67;2.70;;;;;;;-143.84;64.23;45026.22;5070345;28;20958;-68
2022/09/10 08:58:19;;;;;;;7.37;3.60;;;;;;;-143.84;66.50;45041.44;5070933;28;20445;-68
2022/09/10 09:00:48;;;;;;;7.23;2.77;;;;;;;-143.84;66.70;45010.97;5068359;28;20510;-68
2022/09/10 09:03:22;;;;;;;2.60;1.80;;;;;;;-143.84;66.08;45033.84;5070766;28;20441;-68
2022/09/10 09:05:54;;;;;;;13.93;3.03;;;;;;;-143.84;65.98;45005.28;5068168;28;20445;-69
2022/09/10 09:08:24;;;;;;;6.50;2.30;;;;;;;-143.84;66.46;45010.97;5068131;28;20492;-69
2022/09/10 09:10:59;;;;;;;6.03;2.83;;;;;;;-143.84;66.64;45007.19;5070261;28;20536;-70
2022/09/10 09:13:39;;;;;;;6.47;2.50;;;;;;;-143.84;65.13;45007.19;5068935;28;20483;-69
2022/09/10 09:16:33;;;;;;;15.60;2.97;;;;;;;-143.84;65.49;45014.78;5070137;28;20452;-69
2022/09/10 09:19:14;;;;;;;10.60;2.70;;;;;;;-143.84;65.01;45005.28;5069413;28;20456;-69
2022/09/10 09:21:51;;;;;;;8.17;2.30;;;;;;;-143.84;63.00;45018.59;5070878;28;20448;-69
2022/09/10 09:24:30;;;;;;;8.60;2.77;;;;;;;-143.84;63.76;44986.22;5070173;28;20559;-70
2022/09/10 09:27:03;;;;;;;5.53;2.57;;;;;;;-143.84;61.66;44986.22;5069661;28;20467;-70
2022/09/10 09:29:37;;;;;;;6.57;2.20;;;;;;;-143.84;61.62;44969.09;5070245;28;20448;-70
2022/09/10 09:32:06;;;;;;;4.10;2.17;;;;;;;-143.84;61.99;44995.75;5071703;28;20457;-71
2022/09/10 09:34:39;;;;;;;9.30;2.63;;;;;;;-143.84;62.59;44995.75;5072076;28;20596;-72
2022/09/10 09:37:16;;;;;;;3.53;1.97;;;;;;;-143.84;60.56;45026.22;5072091;28;20899;-72
2022/09/10 09:39:51;;;;;;;5.43;2.10;;;;;;;-143.84;60.35;45003.38;5071284;28;20575;-72
2022/09/10 09:42:25;;;;;;;5.03;2.40;;;;;;;-143.84;60.43;45016.69;5069595;28;20448;-72
2022/09/10 09:45:00;;;;;;;6.77;2.00;;;;;;;-143.84;61.15;44997.66;5070906;28;20463;-72
2022/09/10 09:47:27;;;;;;;7.90;2.63;;;;;;;-143.84;60.81;45009.09;5070800;28;20444;-72
2022/09/10 09:49:55;;;;;;;6.90;2.20;;;;;;;-143.84;61.34;45012.88;5070897;28;20985;-72
2022/09/10 09:52:24;;;;;;;5.63;2.60;;;;;;;-143.84;63.74;45016.69;5072082;28;20452;-72
2022/09/10 09:54:54;;;;;;;5.73;2.43;;;;;;;-143.84;61.78;45014.78;5071736;28;20526;-72
2022/09/10 09:57:22;;;;;;;4.37;2.17;;;;;;;-143.84;61.79;44991.94;5072503;28;20460;-72
2022/09/10 09:59:50;;;;;;;4.20;2.17;;;;;;;-143.84;60.65;44997.66;5072809;28;20809;-72
2022/09/10 10:02:20;;;;;;;3.90;1.90;;;;;;;-143.84;61.33;45012.88;5071841;28;20444;-72
2022/09/10 10:05:01;;;;;;;5.63;2.40;;;;;;;-143.84;62.05;45020.50;5072103;28;20433;-72
2022/09/10 10:07:33;;;;;;;6.10;2.17;;;;;;;-143.84;62.16;45009.09;5071666;28;20447;-72
2022/09/10 10:10:01;;;;;;;3.20;2.07;;;;;;;-143.84;62.73;45009.09;5070710;28;20505;-72
2022/09/10 10:12:32;;;;;;;9.00;2.60;;;;;;;-143.84;63.00;45003.38;5070173;28;20502;-72
2022/09/10 10:15:01;;;;;;;10.40;2.97;;;;;;;-143.84;61.72;44995.75;5069379;28;21111;-72
2022/09/10 10:17:33;;;;;;;3.73;1.97;;;;;;;-143.84;60.73;44997.66;5068246;28;20851;-73
2022/09/10 10:20:04;;;;;;;6.27;2.20;;;;;;;-143.84;62.20;45041.44;5069669;28;20945;-73
2022/09/10 10:22:33;;;;;;;3.83;1.70;;;;;;;-143.84;62.08;45018.59;5069264;28;21272;-73
2022/09/10 10:25:01;;;;;;;2.90;2.17;;;;;;;-143.84;62.24;44995.75;5069252;28;20453;-73
2022/09/10 10:27:32;;;;;;;7.60;2.73;;;;;;;-143.84;61.73;45009.09;5068900;28;20518;-73
2022/09/10 10:30:02;;;;;;;4.10;2.40;;;;;;;-143.84;62.13;45010.97;5068947;28;20456;-73
2022/09/10 10:32:39;;;;;;;5.03;2.37;;;;;;;-143.84;61.97;45018.59;5068977;28;20440;-73
2022/09/10 10:35:22;;;;;;;3.53;1.87;;;;;;;-143.84;61.52;44991.94;5067813;28;20491;-73
2022/09/10 10:38:05;;;;;;;5.30;2.70;;;;;;;-143.84;60.82;44988.13;5065810;28;20457;-73
2022/09/10 10:40:35;;;;;;;3.20;2.43;;;;;;;-143.84;60.36;44978.63;5067158;28;20465;-73
2022/09/10 10:43:12;;;;;;;10.47;2.63;;;;;;;-143.84;61.47;45003.38;5067239;28;20816;-73
2022/09/10 10:45:50;;;;;;;4.37;2.77;;;;;;;-143.84;61.44;44995.75;5065557;28;20455;-73
2022/09/10 10:48:25;;;;;;;6.13;2.73;;;;;;;-143.84;61.89;44995.75;5066711;28;20460;-73
2022/09/10 10:51:01;;;;;;;9.40;2.67;;;;;;;-143.84;61.74;44997.66;5064935;28;21020;-73
2022/09/10 10:53:47;;;;;;;5.17;2.50;;;;;;;-143.84;62.01;45010.97;5065961;28;20452;-73
2022/09/10 10:56:20;;;;;;;3.70;2.00;;;;;;;-143.84;61.17;45026.22;5067890;28;20445;-73
2022/09/10 10:59:09;;;;;;;8.50;2.80;;;;;;;-143.84;62.61;45030.03;5068412;28;20878;-73
2022/09/10 11:01:41;;;;;;;8.87;2.20;;;;;;;-143.84;61.86;44995.75;5065823;28;20451;-73
2022/09/10 11:04:24;;;;;;;8.23;2.80;;;;;;;-143.84;61.95;45009.09;5068630;28;20560;-73
2022/09/10 11:06:58;;;;;;;12.80;3.20;;;;;;;-143.84;64.16;44999.56;5068282;28;20860;-73
2022/09/10 11:09:32;;;;;;;8.53;3.23;;;;;;;-143.84;64.41;45005.28;5068355;28;20456;-73
2022/09/10 11:12:03;;;;;;;5.67;1.93;;;;;;;-143.84;63.71;45018.59;5066932;28;20953;-73
2022/09/10 11:14:38;;;;;;;6.83;2.90;;;;;;;-143.84;64.36;45005.28;5068696;28;21075;-70
2022/09/10 11:17:12;;;;;;;4.37;2.30;;;;;;;-143.84;64.34;45014.78;5068060;28;20829;-70
2022/09/10 11:19:46;;;;;;;6.03;2.33;;;;;;;-143.84;64.61;45003.38;5068883;28;20463;-70
2022/09/10 11:22:19;;;;;;;6.57;2.33;;;;;;;-143.84;64.76;44991.94;5066640;28;20453;-70
2022/09/10 11:24:54;;;;;;;7.03;2.43;;;;;;;-143.84;63.95;45001.47;5069668;28;20433;-70
2022/09/10 11:27:28;;;;;;;9.37;2.93;;;;;;;-143.84;65.11;45009.09;5069308;28;20440;-69
2022/09/10 11:30:02;;;;;;;2.73;2.23;;;;;;;-143.84;64.88;45022.41;5069289;28;20440;-70